sensor_id;sensor_type;location;lat;lon;timestamp;pressure;altitude;pressure_sealevel;temperature;humidity
21779;BME280;11050;52.222;20.916;2023-05-20T00:00:09;101257.09;;;15.38;100.00
21779;BME280;11050;52.222;20.916;2023-05-20T00:02:35;101267.91;;;15.39;100.00
21779;BME280;11050;52.222;20.916;2023-05-20T00:05:01;101263.41;;;15.33;100.00
21779;BME280;11050;52.222;20.916;2023-05-20T00:07:27;101259.25;;;15.31;100.00
21779;BME280;11050;52.222;20.916;2023-05-20T00:09:52;101255.59;;;15.25;100.00
21779;BME280;11050;52.222;20.916;2023-05-20T00:12:18;101254.66;;;15.14;100.00
21779;BME280;11050;52.222;20.916;2023-05-20T00:14:44;101260.50;;;15.18;100.00
21779;BME280;11050;52.222;20.916;2023-05-20T00:17:10;101252.44;;;15.16;100.00
21779;BME280;11050;52.222;20.916;2023-05-20T00:19:35;101251.38;;;15.17;100.00
21779;BME280;11050;52.222;20.916;2023-05-20T00:22:01;101248.03;;;15.15;100.00
21779;BME280;11050;52.222;20.916;2023-05-20T00:24:27;101245.25;;;15.15;100.00
21779;BME280;11050;52.222;20.916;2023-05-20T00:26:53;101246.34;;;15.14;100.00
21779;BME280;11050;52.222;20.916;2023-05-20T00:29:21;101247.13;;;15.10;100.00
21779;BME280;11050;52.222;20.916;2023-05-20T00:31:47;101257.94;;;15.11;100.00
21779;BME280;11050;52.222;20.916;2023-05-20T00:34:13;101246.28;;;15.09;100.00
21779;BME280;11050;52.222;20.916;2023-05-20T00:36:39;101237.97;;;15.09;100.00
21779;BME280;11050;52.222;20.916;2023-05-20T00:39:04;101245.72;;;15.07;100.00
21779;BME280;11050;52.222;20.916;2023-05-20T00:41:31;101236.84;;;15.05;100.00
21779;BME280;11050;52.222;20.916;2023-05-20T00:43:56;101242.63;;;15.04;100.00
21779;BME280;11050;52.222;20.916;2023-05-20T00:46:24;101243.72;;;15.03;100.00
21779;BME280;11050;52.222;20.916;2023-05-20T00:48:51;101250.09;;;15.03;100.00
21779;BME280;11050;52.222;20.916;2023-05-20T00:51:19;101243.41;;;14.99;100.00
21779;BME280;11050;52.222;20.916;2023-05-20T00:53:45;101240.59;;;14.94;100.00
21779;BME280;11050;52.222;20.916;2023-05-20T00:56:12;101244.78;;;14.97;100.00
21779;BME280;11050;52.222;20.916;2023-05-20T00:58:38;101231.97;;;14.91;100.00
21779;BME280;11050;52.222;20.916;2023-05-20T01:01:05;101237.25;;;14.92;100.00
21779;BME280;11050;52.222;20.916;2023-05-20T01:03:31;101245.84;;;14.96;100.00
21779;BME280;11050;52.222;20.916;2023-05-20T01:05:57;101244.19;;;14.95;100.00
21779;BME280;11050;52.222;20.916;2023-05-20T01:08:24;101251.09;;;14.92;100.00
21779;BME280;11050;52.222;20.916;2023-05-20T01:11:22;101242.47;;;14.89;100.00
21779;BME280;11050;52.222;20.916;2023-05-20T01:14:00;101240.78;;;14.88;100.00
21779;BME280;11050;52.222;20.916;2023-05-20T01:16:30;101240.78;;;14.88;100.00
21779;BME280;11050;52.222;20.916;2023-05-20T01:19:01;101252.09;;;14.86;100.00
21779;BME280;11050;52.222;20.916;2023-05-20T01:21:29;101247.69;;;14.85;100.00
21779;BME280;11050;52.222;20.916;2023-05-20T01:23:56;101251.53;;;14.84;100.00
21779;BME280;11050;52.222;20.916;2023-05-20T01:26:22;101248.44;;;14.81;100.00
21779;BME280;11050;52.222;20.916;2023-05-20T01:28:52;101247.88;;;14.79;100.00
21779;BME280;11050;52.222;20.916;2023-05-20T01:31:23;101237.13;;;14.82;100.00
21779;BME280;11050;52.222;20.916;2023-05-20T01:33:55;101245.38;;;14.77;100.00
21779;BME280;11050;52.222;20.916;2023-05-20T01:36:23;101245.53;;;14.71;100.00
21779;BME280;11050;52.222;20.916;2023-05-20T01:38:52;101252.19;;;14.70;100.00
21779;BME280;11050;52.222;20.916;2023-05-20T01:41:19;101241.88;;;14.65;100.00
21779;BME280;11050;52.222;20.916;2023-05-20T01:43:46;101250.78;;;14.67;100.00
21779;BME280;11050;52.222;20.916;2023-05-20T01:46:12;101241.66;;;14.67;100.00
21779;BME280;11050;52.222;20.916;2023-05-20T01:48:37;101248.00;;;14.67;100.00
21779;BME280;11050;52.222;20.916;2023-05-20T01:51:03;101236.34;;;14.65;100.00
21779;BME280;11050;52.222;20.916;2023-05-20T01:53:29;101219.16;;;14.63;100.00
21779;BME280;11050;52.222;20.916;2023-05-20T01:55:54;101235.53;;;14.65;100.00
21779;BME280;11050;52.222;20.916;2023-05-20T01:58:20;101232.50;;;14.66;100.00
21779;BME280;11050;52.222;20.916;2023-05-20T02:00:46;101226.97;;;14.66;100.00
21779;BME280;11050;52.222;20.916;2023-05-20T02:03:11;101226.13;;;14.66;100.00
21779;BME280;11050;52.222;20.916;2023-05-20T02:05:37;101228.84;;;14.61;100.00
21779;BME280;11050;52.222;20.916;2023-05-20T02:08:03;101227.16;;;14.60;100.00
21779;BME280;11050;52.222;20.916;2023-05-20T02:10:28;101225.19;;;14.55;100.00
21779;BME280;11050;52.222;20.916;2023-05-20T02:12:54;101220.66;;;14.49;100.00
21779;BME280;11050;52.222;20.916;2023-05-20T02:15:20;101230.88;;;14.49;100.00
21779;BME280;11050;52.222;20.916;2023-05-20T02:17:46;101227.28;;;14.48;100.00
21779;BME280;11050;52.222;20.916;2023-05-20T02:20:11;101226.97;;;14.45;100.00
21779;BME280;11050;52.222;20.916;2023-05-20T02:22:38;101226.66;;;14.41;100.00
21779;BME280;11050;52.222;20.916;2023-05-20T02:25:04;101236.94;;;14.46;100.00
21779;BME280;11050;52.222;20.916;2023-05-20T02:27:30;101237.75;;;14.46;100.00
21779;BME280;11050;52.222;20.916;2023-05-20T02:29:56;101234.19;;;14.46;100.00
21779;BME280;11050;52.222;20.916;2023-05-20T02:32:22;101231.75;;;14.49;100.00
21779;BME280;11050;52.222;20.916;2023-05-20T02:34:55;101230.00;;;14.43;100.00
21779;BME280;11050;52.222;20.916;2023-05-20T02:37:21;101233.91;;;14.47;100.00
21779;BME280;11050;52.222;20.916;2023-05-20T02:39:47;101240.31;;;14.48;100.00
21779;BME280;11050;52.222;20.916;2023-05-20T02:42:12;101246.66;;;14.48;100.00
21779;BME280;11050;52.222;20.916;2023-05-20T02:44:38;101250.00;;;14.50;100.00
21779;BME280;11050;52.222;20.916;2023-05-20T02:47:04;101253.91;;;14.54;100.00
21779;BME280;11050;52.222;20.916;2023-05-20T02:49:29;101239.25;;;14.54;100.00
21779;BME280;11050;52.222;20.916;2023-05-20T02:51:55;101244.59;;;14.60;100.00
21779;BME280;11050;52.222;20.916;2023-05-20T02:54:21;101240.72;;;14.61;100.00
21779;BME280;11050;52.222;20.916;2023-05-20T02:56:47;101241.31;;;14.63;100.00
21779;BME280;11050;52.222;20.916;2023-05-20T02:59:12;101244.06;;;14.63;100.00
21779;BME280;11050;52.222;20.916;2023-05-20T03:01:38;101245.75;;;14.64;100.00
21779;BME280;11050;52.222;20.916;2023-05-20T03:04:05;101236.31;;;14.60;100.00
21779;BME280;11050;52.222;20.916;2023-05-20T03:06:31;101229.34;;;14.58;100.00
21779;BME280;11050;52.222;20.916;2023-05-20T03:08:57;101239.38;;;14.64;100.00
21779;BME280;11050;52.222;20.916;2023-05-20T03:11:23;101237.19;;;14.66;100.00
21779;BME280;11050;52.222;20.916;2023-05-20T03:13:49;101230.59;;;14.67;100.00
21779;BME280;11050;52.222;20.916;2023-05-20T03:16:14;101233.34;;;14.67;100.00
21779;BME280;11050;52.222;20.916;2023-05-20T03:18:41;101231.72;;;14.71;100.00
21779;BME280;11050;52.222;20.916;2023-05-20T03:21:07;101236.47;;;14.75;100.00
21779;BME280;11050;52.222;20.916;2023-05-20T03:23:33;101238.22;;;14.81;100.00
21779;BME280;11050;52.222;20.916;2023-05-20T03:25:59;101249.88;;;14.83;100.00
21779;BME280;11050;52.222;20.916;2023-05-20T03:28:26;101245.50;;;14.87;100.00
21779;BME280;11050;52.222;20.916;2023-05-20T03:30:51;101250.81;;;14.94;100.00
21779;BME280;11050;52.222;20.916;2023-05-20T03:33:17;101249.78;;;15.00;100.00
21779;BME280;11050;52.222;20.916;2023-05-20T03:35:43;101253.44;;;15.05;100.00
21779;BME280;11050;52.222;20.916;2023-05-20T03:38:09;101245.44;;;15.09;100.00
21779;BME280;11050;52.222;20.916;2023-05-20T03:40:34;101243.00;;;15.12;100.00
21779;BME280;11050;52.222;20.916;2023-05-20T03:43:00;101242.47;;;15.15;100.00
21779;BME280;11050;52.222;20.916;2023-05-20T03:45:26;101248.38;;;15.24;100.00
21779;BME280;11050;52.222;20.916;2023-05-20T03:47:51;101237.00;;;15.20;100.00
21779;BME280;11050;52.222;20.916;2023-05-20T03:50:17;101245.09;;;15.27;100.00
21779;BME280;11050;52.222;20.916;2023-05-20T03:52:43;101250.69;;;15.32;100.00
21779;BME280;11050;52.222;20.916;2023-05-20T03:55:09;101251.25;;;15.34;100.00
21779;BME280;11050;52.222;20.916;2023-05-20T03:57:35;101247.44;;;15.40;100.00
21779;BME280;11050;52.222;20.916;2023-05-20T04:00:02;101244.16;;;15.43;100.00
21779;BME280;11050;52.222;20.916;2023-05-20T04:02:30;101255.84;;;15.50;100.00
21779;BME280;11050;52.222;20.916;2023-05-20T04:04:55;101245.41;;;15.57;100.00
21779;BME280;11050;52.222;20.916;2023-05-20T04:07:22;101250.16;;;15.62;100.00
21779;BME280;11050;52.222;20.916;2023-05-20T04:09:48;101249.41;;;15.71;100.00
21779;BME280;11050;52.222;20.916;2023-05-20T04:12:14;101244.72;;;15.77;100.00
21779;BME280;11050;52.222;20.916;2023-05-20T04:14:39;101252.56;;;15.85;100.00
21779;BME280;11050;52.222;20.916;2023-05-20T04:17:06;101254.28;;;15.91;100.00
21779;BME280;11050;52.222;20.916;2023-05-20T04:19:32;101253.47;;;15.95;100.00
21779;BME280;11050;52.222;20.916;2023-05-20T04:21:59;101254.91;;;16.03;100.00
21779;BME280;11050;52.222;20.916;2023-05-20T04:24:25;101257.47;;;16.09;100.00
21779;BME280;11050;52.222;20.916;2023-05-20T04:26:51;101265.28;;;16.18;100.00
21779;BME280;11050;52.222;20.916;2023-05-20T04:29:18;101262.28;;;16.29;100.00
21779;BME280;11050;52.222;20.916;2023-05-20T04:31:47;101261.25;;;16.40;100.00
21779;BME280;11050;52.222;20.916;2023-05-20T04:34:13;101260.16;;;16.46;100.00
21779;BME280;11050;52.222;20.916;2023-05-20T04:36:39;101260.25;;;16.56;100.00
21779;BME280;11050;52.222;20.916;2023-05-20T04:39:05;101254.78;;;16.66;99.84
21779;BME280;11050;52.222;20.916;2023-05-20T04:41:32;101244.53;;;16.72;100.00
21779;BME280;11050;52.222;20.916;2023-05-20T04:43:58;101256.25;;;16.89;99.12
21779;BME280;11050;52.222;20.916;2023-05-20T04:46:25;101254.09;;;17.06;97.37
21779;BME280;11050;52.222;20.916;2023-05-20T04:48:52;101253.00;;;17.17;96.86
21779;BME280;11050;52.222;20.916;2023-05-20T04:51:18;101253.56;;;17.29;96.44
21779;BME280;11050;52.222;20.916;2023-05-20T04:53:44;101258.06;;;17.40;95.45
21779;BME280;11050;52.222;20.916;2023-05-20T04:56:11;101249.44;;;17.42;94.10
21779;BME280;11050;52.222;20.916;2023-05-20T04:58:36;101255.84;;;17.57;93.47
21779;BME280;11050;52.222;20.916;2023-05-20T05:01:02;101256.72;;;17.63;93.19
21779;BME280;11050;52.222;20.916;2023-05-20T05:03:28;101264.75;;;17.74;92.51
21779;BME280;11050;52.222;20.916;2023-05-20T05:05:57;101260.59;;;17.87;92.13
21779;BME280;11050;52.222;20.916;2023-05-20T05:08:24;101262.78;;;17.95;91.81
21779;BME280;11050;52.222;20.916;2023-05-20T05:10:51;101263.06;;;18.09;91.15
21779;BME280;11050;52.222;20.916;2023-05-20T05:13:17;101261.41;;;18.23;89.33
21779;BME280;11050;52.222;20.916;2023-05-20T05:15:43;101263.31;;;18.37;88.95
21779;BME280;11050;52.222;20.916;2023-05-20T05:18:09;101266.09;;;18.42;87.95
21779;BME280;11050;52.222;20.916;2023-05-20T05:20:34;101269.97;;;18.56;88.37
21779;BME280;11050;52.222;20.916;2023-05-20T05:23:00;101262.41;;;18.67;87.33
21779;BME280;11050;52.222;20.916;2023-05-20T05:25:26;101262.09;;;18.73;85.98
21779;BME280;11050;52.222;20.916;2023-05-20T05:27:52;101260.38;;;18.87;84.65
21779;BME280;11050;52.222;20.916;2023-05-20T05:30:19;101267.84;;;19.02;82.94
21779;BME280;11050;52.222;20.916;2023-05-20T05:32:46;101262.47;;;19.11;82.00
21779;BME280;11050;52.222;20.916;2023-05-20T05:35:12;101256.81;;;19.26;81.19
21779;BME280;11050;52.222;20.916;2023-05-20T05:37:38;101276.88;;;19.28;80.33
21779;BME280;11050;52.222;20.916;2023-05-20T05:40:06;101262.66;;;19.34;80.68
21779;BME280;11050;52.222;20.916;2023-05-20T05:42:32;101270.13;;;19.44;78.97
21779;BME280;11050;52.222;20.916;2023-05-20T05:44:58;101275.06;;;19.57;79.07
21779;BME280;11050;52.222;20.916;2023-05-20T05:47:23;101275.44;;;19.79;77.86
21779;BME280;11050;52.222;20.916;2023-05-20T05:49:54;101283.69;;;19.94;76.75
21779;BME280;11050;52.222;20.916;2023-05-20T05:52:19;101280.22;;;20.07;75.88
21779;BME280;11050;52.222;20.916;2023-05-20T05:54:46;101287.41;;;20.18;75.70
21779;BME280;11050;52.222;20.916;2023-05-20T05:57:11;101285.63;;;20.27;75.03
21779;BME280;11050;52.222;20.916;2023-05-20T05:59:37;101280.56;;;20.34;74.62
21779;BME280;11050;52.222;20.916;2023-05-20T06:02:03;101281.88;;;20.42;74.15
21779;BME280;11050;52.222;20.916;2023-05-20T06:04:29;101279.25;;;20.50;73.96
21779;BME280;11050;52.222;20.916;2023-05-20T06:06:54;101274.13;;;20.57;73.49
21779;BME280;11050;52.222;20.916;2023-05-20T06:09:20;101286.03;;;20.68;72.77
21779;BME280;11050;52.222;20.916;2023-05-20T06:11:46;101284.91;;;20.69;73.59
21779;BME280;11050;52.222;20.916;2023-05-20T06:14:11;101287.34;;;20.75;72.21
21779;BME280;11050;52.222;20.916;2023-05-20T06:16:37;101285.09;;;20.77;71.28
21779;BME280;11050;52.222;20.916;2023-05-20T06:19:03;101280.38;;;20.73;71.78
21779;BME280;11050;52.222;20.916;2023-05-20T06:21:31;101273.84;;;20.83;71.58
21779;BME280;11050;52.222;20.916;2023-05-20T06:23:57;101275.59;;;20.97;71.15
21779;BME280;11050;52.222;20.916;2023-05-20T06:26:22;101283.06;;;21.07;69.86
21779;BME280;11050;52.222;20.916;2023-05-20T06:28:48;101279.16;;;21.08;70.20
21779;BME280;11050;52.222;20.916;2023-05-20T06:31:13;101268.50;;;21.10;69.71
21779;BME280;11050;52.222;20.916;2023-05-20T06:33:39;101272.28;;;21.19;69.30
21779;BME280;11050;52.222;20.916;2023-05-20T06:36:05;101271.09;;;21.25;69.39
21779;BME280;11050;52.222;20.916;2023-05-20T06:38:31;101272.59;;;21.36;69.80
21779;BME280;11050;52.222;20.916;2023-05-20T06:40:57;101275.00;;;21.42;70.20
21779;BME280;11050;52.222;20.916;2023-05-20T06:43:22;101267.22;;;21.58;69.55
21779;BME280;11050;52.222;20.916;2023-05-20T06:45:48;101274.75;;;21.76;69.15
21779;BME280;11050;52.222;20.916;2023-05-20T06:48:15;101266.22;;;21.67;69.10
21779;BME280;11050;52.222;20.916;2023-05-20T06:50:40;101254.28;;;21.62;68.79
21779;BME280;11050;52.222;20.916;2023-05-20T06:53:06;101260.53;;;21.73;68.30
21779;BME280;11050;52.222;20.916;2023-05-20T06:55:32;101263.53;;;21.81;67.33
21779;BME280;11050;52.222;20.916;2023-05-20T06:57:57;101261.38;;;21.92;68.23
21779;BME280;11050;52.222;20.916;2023-05-20T07:00:23;101267.19;;;21.95;67.54
21779;BME280;11050;52.222;20.916;2023-05-20T07:02:49;101272.19;;;21.98;68.90
21779;BME280;11050;52.222;20.916;2023-05-20T07:05:15;101266.69;;;22.07;67.30
21779;BME280;11050;52.222;20.916;2023-05-20T07:07:40;101259.66;;;22.09;66.32
21779;BME280;11050;52.222;20.916;2023-05-20T07:10:07;101257.44;;;22.25;67.00
21779;BME280;11050;52.222;20.916;2023-05-20T07:12:33;101262.28;;;22.33;65.99
21779;BME280;11050;52.222;20.916;2023-05-20T07:14:59;101250.06;;;22.42;66.33
21779;BME280;11050;52.222;20.916;2023-05-20T07:17:24;101255.59;;;22.47;64.95
21779;BME280;11050;52.222;20.916;2023-05-20T07:19:52;101257.75;;;22.50;64.32
21779;BME280;11050;52.222;20.916;2023-05-20T07:22:17;101250.13;;;22.56;64.72
21779;BME280;11050;52.222;20.916;2023-05-20T07:24:44;101258.13;;;22.63;64.55
21779;BME280;11050;52.222;20.916;2023-05-20T07:27:10;101261.03;;;22.71;65.38
21779;BME280;11050;52.222;20.916;2023-05-20T07:29:36;101256.78;;;22.74;62.23
21779;BME280;11050;52.222;20.916;2023-05-20T07:32:03;101268.38;;;22.67;63.37
21779;BME280;11050;52.222;20.916;2023-05-20T07:34:30;101256.34;;;22.67;64.61
21779;BME280;11050;52.222;20.916;2023-05-20T07:36:56;101255.31;;;22.63;64.98
21779;BME280;11050;52.222;20.916;2023-05-20T07:39:23;101252.59;;;22.57;64.39
21779;BME280;11050;52.222;20.916;2023-05-20T07:41:49;101256.13;;;22.63;64.93
21779;BME280;11050;52.222;20.916;2023-05-20T07:44:14;101250.66;;;22.72;63.07
21779;BME280;11050;52.222;20.916;2023-05-20T07:46:43;101243.56;;;22.88;64.43
21779;BME280;11050;52.222;20.916;2023-05-20T07:49:10;101251.00;;;23.19;63.96
21779;BME280;11050;52.222;20.916;2023-05-20T07:51:35;101246.59;;;23.40;61.97
21779;BME280;11050;52.222;20.916;2023-05-20T07:54:02;101239.94;;;23.72;61.45
21779;BME280;11050;52.222;20.916;2023-05-20T07:56:28;101249.28;;;24.03;60.98
21779;BME280;11050;52.222;20.916;2023-05-20T07:58:56;101249.56;;;24.24;59.50
21779;BME280;11050;52.222;20.916;2023-05-20T08:01:26;101241.09;;;24.46;58.93
21779;BME280;11050;52.222;20.916;2023-05-20T08:03:52;101241.25;;;24.72;58.00
21779;BME280;11050;52.222;20.916;2023-05-20T08:06:19;101243.41;;;24.83;57.52
21779;BME280;11050;52.222;20.916;2023-05-20T08:08:45;101246.09;;;24.88;57.45
21779;BME280;11050;52.222;20.916;2023-05-20T08:11:12;101250.63;;;25.15;55.80
21779;BME280;11050;52.222;20.916;2023-05-20T08:13:38;101247.03;;;25.40;56.16
21779;BME280;11050;52.222;20.916;2023-05-20T08:16:04;101254.97;;;25.55;53.07
21779;BME280;11050;52.222;20.916;2023-05-20T08:18:33;101243.38;;;25.48;51.74
21779;BME280;11050;52.222;20.916;2023-05-20T08:20:59;101250.69;;;25.49;50.73
21779;BME280;11050;52.222;20.916;2023-05-20T08:23:25;101241.25;;;25.45;51.98
21779;BME280;11050;52.222;20.916;2023-05-20T08:25:51;101248.88;;;25.62;52.35
21779;BME280;11050;52.222;20.916;2023-05-20T08:28:17;101244.38;;;25.52;50.93
21779;BME280;11050;52.222;20.916;2023-05-20T08:30:43;101238.75;;;25.69;52.07
21779;BME280;11050;52.222;20.916;2023-05-20T08:33:09;101240.41;;;25.70;50.88
21779;BME280;11050;52.222;20.916;2023-05-20T08:35:35;101233.31;;;25.64;50.88
21779;BME280;11050;52.222;20.916;2023-05-20T08:38:04;101241.88;;;25.76;50.12
21779;BME280;11050;52.222;20.916;2023-05-20T08:40:30;101248.84;;;25.87;51.39
21779;BME280;11050;52.222;20.916;2023-05-20T08:42:56;101233.56;;;25.97;51.13
21779;BME280;11050;52.222;20.916;2023-05-20T08:45:24;101238.56;;;26.17;50.34
21779;BME280;11050;52.222;20.916;2023-05-20T08:47:53;101239.16;;;26.31;51.38
21779;BME280;11050;52.222;20.916;2023-05-20T08:50:19;101224.38;;;26.43;51.26
21779;BME280;11050;52.222;20.916;2023-05-20T08:52:47;101231.41;;;26.66;51.32
21779;BME280;11050;52.222;20.916;2023-05-20T08:55:45;101224.66;;;26.87;49.88
21779;BME280;11050;52.222;20.916;2023-05-20T08:58:11;101228.81;;;26.90;50.04
21779;BME280;11050;52.222;20.916;2023-05-20T09:00:37;101228.75;;;26.98;49.96
21779;BME280;11050;52.222;20.916;2023-05-20T09:03:03;101207.16;;;27.02;50.77
21779;BME280;11050;52.222;20.916;2023-05-20T09:05:30;101216.69;;;27.18;50.50
21779;BME280;11050;52.222;20.916;2023-05-20T09:08:16;101215.94;;;27.30;50.30
21779;BME280;11050;52.222;20.916;2023-05-20T09:10:42;101210.38;;;27.42;48.40
21779;BME280;11050;52.222;20.916;2023-05-20T09:13:09;101218.66;;;27.47;47.93
21779;BME280;11050;52.222;20.916;2023-05-20T09:15:36;101216.63;;;27.48;48.79
21779;BME280;11050;52.222;20.916;2023-05-20T09:18:05;101204.72;;;27.63;48.05
21779;BME280;11050;52.222;20.916;2023-05-20T09:20:34;101207.94;;;27.94;47.73
21779;BME280;11050;52.222;20.916;2023-05-20T09:23:04;101203.19;;;28.19;45.95
21779;BME280;11050;52.222;20.916;2023-05-20T09:25:30;101206.50;;;28.45;46.27
21779;BME280;11050;52.222;20.916;2023-05-20T09:27:56;101210.28;;;28.49;43.49
21779;BME280;11050;52.222;20.916;2023-05-20T09:30:22;101214.44;;;28.63;44.13
21779;BME280;11050;52.222;20.916;2023-05-20T09:32:56;101216.31;;;28.83;44.81
21779;BME280;11050;52.222;20.916;2023-05-20T09:35:23;101208.56;;;29.17;43.86
21779;BME280;11050;52.222;20.916;2023-05-20T09:37:52;101209.81;;;29.19;42.55
21779;BME280;11050;52.222;20.916;2023-05-20T09:40:28;101197.47;;;28.87;42.49
21779;BME280;11050;52.222;20.916;2023-05-20T09:43:03;101203.69;;;29.05;45.21
21779;BME280;11050;52.222;20.916;2023-05-20T09:45:29;101209.56;;;29.36;42.04
21779;BME280;11050;52.222;20.916;2023-05-20T09:47:56;101200.28;;;29.51;40.98
21779;BME280;11050;52.222;20.916;2023-05-20T09:50:23;101201.69;;;29.57;41.53
21779;BME280;11050;52.222;20.916;2023-05-20T09:52:51;101198.22;;;29.76;41.52
21779;BME280;11050;52.222;20.916;2023-05-20T09:55:19;101197.63;;;29.82;41.65
21779;BME280;11050;52.222;20.916;2023-05-20T09:57:46;101197.44;;;29.91;41.51
21779;BME280;11050;52.222;20.916;2023-05-20T10:00:14;101191.38;;;29.77;38.97
21779;BME280;11050;52.222;20.916;2023-05-20T10:02:47;101195.50;;;29.40;41.14
21779;BME280;11050;52.222;20.916;2023-05-20T10:05:26;101200.72;;;29.65;42.81
21779;BME280;11050;52.222;20.916;2023-05-20T10:11:21;101197.19;;;30.12;40.94
21779;BME280;11050;52.222;20.916;2023-05-20T10:17:45;101185.28;;;29.90;38.33
21779;BME280;11050;52.222;20.916;2023-05-20T10:20:15;101182.31;;;29.71;39.64
21779;BME280;11050;52.222;20.916;2023-05-20T10:22:41;101191.97;;;29.98;39.38
21779;BME280;11050;52.222;20.916;2023-05-20T10:25:22;101191.06;;;30.10;40.37
21779;BME280;11050;52.222;20.916;2023-05-20T10:27:49;101186.03;;;30.03;38.05
21779;BME280;11050;52.222;20.916;2023-05-20T10:30:20;101182.75;;;30.01;40.08
21779;BME280;11050;52.222;20.916;2023-05-20T10:32:57;101184.84;;;30.04;39.30
21779;BME280;11050;52.222;20.916;2023-05-20T10:35:29;101179.72;;;30.10;39.86
21779;BME280;11050;52.222;20.916;2023-05-20T10:38:10;101181.28;;;30.23;39.70
21779;BME280;11050;52.222;20.916;2023-05-20T10:40:37;101180.41;;;30.19;38.13
21779;BME280;11050;52.222;20.916;2023-05-20T10:43:11;101166.88;;;30.28;37.48
21779;BME280;11050;52.222;20.916;2023-05-20T10:45:49;101166.44;;;29.98;37.21
21779;BME280;11050;52.222;20.916;2023-05-20T10:48:31;101167.66;;;29.97;39.88
21779;BME280;11050;52.222;20.916;2023-05-20T10:51:02;101162.78;;;30.41;38.15
21779;BME280;11050;52.222;20.916;2023-05-20T10:53:41;101150.09;;;30.85;37.29
21779;BME280;11050;52.222;20.916;2023-05-20T10:56:21;101148.72;;;31.14;37.21
21779;BME280;11050;52.222;20.916;2023-05-20T10:58:48;101149.44;;;31.26;37.71
21779;BME280;11050;52.222;20.916;2023-05-20T11:01:15;101148.56;;;31.41;37.12
21779;BME280;11050;52.222;20.916;2023-05-20T11:03:44;101153.63;;;31.51;36.89
21779;BME280;11050;52.222;20.916;2023-05-20T11:06:16;101143.59;;;31.96;35.85
21779;BME280;11050;52.222;20.916;2023-05-20T11:08:44;101139.28;;;32.47;33.46
21779;BME280;11050;52.222;20.916;2023-05-20T11:11:11;101131.13;;;32.49;32.27
21779;BME280;11050;52.222;20.916;2023-05-20T11:13:38;101132.91;;;32.83;31.46
21779;BME280;11050;52.222;20.916;2023-05-20T11:16:04;101128.56;;;33.19;31.38
21779;BME280;11050;52.222;20.916;2023-05-20T11:18:30;101122.53;;;33.54;31.38
21779;BME280;11050;52.222;20.916;2023-05-20T11:20:58;101125.53;;;34.01;30.61
21779;BME280;11050;52.222;20.916;2023-05-20T11:23:29;101117.19;;;34.25;29.23
21779;BME280;11050;52.222;20.916;2023-05-20T11:25:57;101124.13;;;34.75;30.43
21779;BME280;11050;52.222;20.916;2023-05-20T11:28:23;101126.03;;;35.15;28.75
21779;BME280;11050;52.222;20.916;2023-05-20T11:30:54;101112.94;;;35.03;28.88
21779;BME280;11050;52.222;20.916;2023-05-20T11:33:24;101129.06;;;34.31;29.68
21779;BME280;11050;52.222;20.916;2023-05-20T11:35:52;101119.06;;;33.37;29.75
21779;BME280;11050;52.222;20.916;2023-05-20T11:38:20;101115.72;;;32.76;30.26
21779;BME280;11050;52.222;20.916;2023-05-20T11:40:51;101114.75;;;33.51;30.89
21779;BME280;11050;52.222;20.916;2023-05-20T11:43:17;101123.09;;;33.70;30.15
21779;BME280;11050;52.222;20.916;2023-05-20T11:45:46;101123.72;;;34.26;29.42
21779;BME280;11050;52.222;20.916;2023-05-20T11:48:12;101126.84;;;34.10;29.33
21779;BME280;11050;52.222;20.916;2023-05-20T11:50:43;101119.63;;;34.23;29.93
21779;BME280;11050;52.222;20.916;2023-05-20T11:53:21;101120.94;;;34.33;29.77
21779;BME280;11050;52.222;20.916;2023-05-20T11:55:55;101120.94;;;34.33;28.78
21779;BME280;11050;52.222;20.916;2023-05-20T12:00:48;101105.13;;;35.93;27.18
21779;BME280;11050;52.222;20.916;2023-05-20T12:03:14;101121.50;;;36.81;25.63
21779;BME280;11050;52.222;20.916;2023-05-20T12:05:41;101108.00;;;36.18;25.39
21779;BME280;11050;52.222;20.916;2023-05-20T12:08:07;101114.88;;;35.89;26.69
21779;BME280;11050;52.222;20.916;2023-05-20T12:10:34;101111.16;;;35.64;27.35
21779;BME280;11050;52.222;20.916;2023-05-20T12:13:01;101098.47;;;35.58;28.44
21779;BME280;11050;52.222;20.916;2023-05-20T12:15:27;101104.34;;;36.03;26.79
21779;BME280;11050;52.222;20.916;2023-05-20T12:17:53;101109.63;;;36.75;26.61
21779;BME280;11050;52.222;20.916;2023-05-20T12:20:23;101102.59;;;37.12;25.98
21779;BME280;11050;52.222;20.916;2023-05-20T12:22:49;101105.31;;;37.57;24.03
21779;BME280;11050;52.222;20.916;2023-05-20T12:25:18;101100.69;;;37.77;25.26
21779;BME280;11050;52.222;20.916;2023-05-20T12:27:46;101110.47;;;38.45;23.80
21779;BME280;11050;52.222;20.916;2023-05-20T12:30:15;101108.69;;;39.03;23.67
21779;BME280;11050;52.222;20.916;2023-05-20T12:32:42;101107.28;;;39.51;23.51
21779;BME280;11050;52.222;20.916;2023-05-20T12:35:09;101099.53;;;39.75;21.81
21779;BME280;11050;52.222;20.916;2023-05-20T12:37:39;101105.78;;;40.00;21.36
21779;BME280;11050;52.222;20.916;2023-05-20T12:40:10;101104.47;;;40.31;20.97
21779;BME280;11050;52.222;20.916;2023-05-20T12:42:38;101095.44;;;40.52;19.89
21779;BME280;11050;52.222;20.916;2023-05-20T12:45:05;101098.44;;;40.69;19.16